Time;durP1;ratioP1;P1;durP2;ratioP2;P2;SDS_P1;SDS_P2;PMS_P1;PMS_P2;Temp;Humidity;BMP_temperature;BMP_pressure;BME280_temperature;BME280_humidity;BME280_pressure;Samples;Min_cycle;Max_cycle;Signal;HPM_P1;HPM_P2
2021/04/06 00:02:00;;;;;;;;;;;0.10;99.90;;;;;;5081817;28;20024;-46
2021/04/06 00:04:34;;;;;;;8.02;2.63;;;0.10;99.90;;;;;;5086530;28;19999;-46
2021/04/06 00:07:04;;;;;;;10.52;3.85;;;0.10;99.90;;;;;;5087150;28;20039;-47
2021/04/06 00:09:33;;;;;;;9.82;2.83;;;0.10;99.90;;;;;;5086783;28;20032;-48
2021/04/06 00:12:01;;;;;;;10.25;2.72;;;0.10;99.90;;;;;;5087406;28;20058;-48
2021/04/06 00:14:29;;;;;;;8.98;2.88;;;0.00;99.90;;;;;;5087016;28;20440;-49
2021/04/06 00:16:56;;;;;;;8.10;2.70;;;0.00;99.90;;;;;;5087353;28;20692;-47
2021/04/06 00:19:24;;;;;;;7.03;2.90;;;0.00;99.90;;;;;;5087165;28;20032;-48
2021/04/06 00:21:57;;;;;;;15.25;4.10;;;0.00;99.90;;;;;;5069047;28;20031;-47
2021/04/06 00:24:26;;;;;;;4.03;2.40;;;-0.10;99.90;;;;;;5085811;28;20051;-45
2021/04/06 00:26:55;;;;;;;12.05;4.70;;;0.00;99.90;;;;;;5087211;28;20034;-45
2021/04/06 00:29:25;;;;;;;9.80;3.13;;;0.00;99.90;;;;;;5087037;28;20066;-45
2021/04/06 00:31:55;;;;;;;8.52;3.08;;;0.00;99.90;;;;;;5086263;28;20035;-47
2021/04/06 00:34:23;;;;;;;5.22;2.05;;;0.00;99.90;;;;;;5086289;28;20456;-47
2021/04/06 00:36:53;;;;;;;10.90;2.75;;;0.10;99.90;;;;;;5086518;28;20528;-47
2021/04/06 00:39:34;;;;;;;7.90;2.83;;;0.00;99.90;;;;;;5087015;28;20468;-46
2021/04/06 00:42:18;;;;;;;4.80;2.67;;;0.00;99.90;;;;;;5086132;28;20039;-47
2021/04/06 00:44:57;;;;;;;6.35;2.75;;;0.00;99.90;;;;;;5086284;28;20046;-47
2021/04/06 00:47:28;;;;;;;7.15;2.85;;;0.00;99.90;;;;;;5086867;28;20028;-47
2021/04/06 00:49:56;;;;;;;6.30;2.92;;;0.00;99.90;;;;;;5086238;28;20028;-45
2021/04/06 00:52:25;;;;;;;6.95;2.60;;;-0.10;99.90;;;;;;5086371;28;20024;-47
2021/04/06 00:54:56;;;;;;;9.98;3.17;;;-0.10;99.90;;;;;;5086080;28;20039;-46
2021/04/06 00:57:26;;;;;;;9.05;2.72;;;-0.10;99.90;;;;;;5086049;28;20157;-45
2021/04/06 01:00:16;;;;;;;7.10;2.85;;;-0.10;99.90;;;;;;5086257;28;20024;-46
2021/04/06 01:03:03;;;;;;;7.90;3.38;;;-0.10;99.90;;;;;;5073227;28;20028;-45
2021/04/06 01:05:34;;;;;;;6.60;2.80;;;-0.10;99.90;;;;;;5066255;28;20498;-47
2021/04/06 01:08:03;;;;;;;7.38;2.80;;;-0.10;99.90;;;;;;5067372;28;20458;-47
2021/04/06 01:10:31;;;;;;;8.20;3.17;;;-0.10;99.90;;;;;;5086032;28;20021;-46
2021/04/06 01:12:58;;;;;;;7.78;2.63;;;0.00;99.90;;;;;;5067632;28;20024;-48
2021/04/06 01:15:26;;;;;;;6.72;2.83;;;0.00;99.90;;;;;;5085487;28;20020;-46
2021/04/06 01:17:52;;;;;;;11.15;2.88;;;0.10;99.90;;;;;;5086275;28;20032;-47
2021/04/06 01:20:19;;;;;;;6.05;2.88;;;0.10;99.90;;;;;;5086158;28;20028;-46
2021/04/06 01:22:52;;;;;;;10.05;3.20;;;0.20;99.90;;;;;;5085498;28;20203;-46
2021/04/06 01:25:22;;;;;;;5.90;3.60;;;0.20;99.90;;;;;;5085894;28;20016;-45
2021/04/06 01:27:48;;;;;;;8.83;2.63;;;0.20;99.90;;;;;;5086722;28;20074;-46
2021/04/06 01:30:16;;;;;;;7.50;3.25;;;0.20;99.90;;;;;;5085354;28;20270;-46
2021/04/06 01:32:42;;;;;;;9.85;3.58;;;0.20;99.90;;;;;;5086764;28;20032;-47
2021/04/06 01:35:09;;;;;;;10.57;3.95;;;0.30;99.90;;;;;;5085313;28;20077;-48
2021/04/06 01:37:35;;;;;;;9.05;4.47;;;0.30;99.90;;;;;;5085835;28;20090;-46
2021/04/06 01:40:04;;;;;;;7.53;4.28;;;0.30;99.90;;;;;;5085668;28;20020;-46
2021/04/06 01:42:33;;;;;;;9.93;4.03;;;0.40;99.90;;;;;;5067885;28;20035;-48
2021/04/06 01:45:02;;;;;;;7.18;3.80;;;0.40;99.90;;;;;;5085330;28;20635;-47
2021/04/06 01:47:29;;;;;;;10.65;5.50;;;0.40;99.90;;;;;;5085503;28;20030;-47
2021/04/06 01:49:57;;;;;;;10.52;4.57;;;0.40;99.90;;;;;;5086177;28;20466;-47
2021/04/06 01:52:23;;;;;;;10.40;5.60;;;0.40;99.90;;;;;;5086437;28;20028;-50
2021/04/06 01:54:57;;;;;;;11.15;5.55;;;0.30;99.90;;;;;;5089111;28;20042;-49
2021/04/06 01:57:28;;;;;;;22.20;6.80;;;0.30;99.90;;;;;;5089983;28;20038;-46
2021/04/06 02:00:02;;;;;;;12.38;5.10;;;0.30;99.90;;;;;;5089880;28;20032;-46
2021/04/06 02:02:28;;;;;;;8.90;4.82;;;0.30;99.90;;;;;;5063786;28;20029;-46
2021/04/06 02:04:59;;;;;;;14.85;6.18;;;0.30;99.90;;;;;;5086505;28;20370;-48
2021/04/06 02:07:28;;;;;;;14.27;5.63;;;0.30;99.90;;;;;;5089828;28;20099;-48
2021/04/06 02:09:54;;;;;;;13.57;5.25;;;0.40;99.90;;;;;;5088657;28;20024;-46
2021/04/06 02:12:22;;;;;;;8.98;4.57;;;0.40;99.90;;;;;;5089750;28;20443;-45
2021/04/06 02:14:58;;;;;;;12.85;5.50;;;0.40;99.90;;;;;;5089148;28;20028;-47
2021/04/06 02:17:23;;;;;;;12.85;4.55;;;0.40;99.90;;;;;;5071738;28;20223;-45
2021/04/06 02:19:49;;;;;;;17.15;4.60;;;0.30;99.90;;;;;;5089887;28;20135;-47
2021/04/06 02:22:17;;;;;;;6.13;3.95;;;0.30;99.90;;;;;;5089535;28;20024;-46
2021/04/06 02:24:47;;;;;;;9.93;5.47;;;0.30;99.90;;;;;;5088162;28;20393;-48
2021/04/06 02:27:24;;;;;;;10.00;4.85;;;0.30;99.90;;;;;;5089452;28;20020;-45
2021/04/06 02:29:58;;;;;;;6.18;4.00;;;0.10;99.90;;;;;;5089481;28;20024;-45
2021/04/06 02:32:25;;;;;;;9.20;4.55;;;0.10;99.90;;;;;;5088536;28;20032;-46
2021/04/06 02:34:56;;;;;;;10.40;4.78;;;0.10;99.90;;;;;;5088711;28;20043;-46
2021/04/06 02:37:24;;;;;;;11.75;4.57;;;0.10;99.90;;;;;;5088859;28;20035;-46
2021/04/06 02:39:53;;;;;;;8.63;4.43;;;0.20;99.90;;;;;;5088811;28;20028;-48
2021/04/06 02:42:41;;;;;;;7.40;3.78;;;0.20;99.90;;;;;;5089152;28;20032;-45
2021/04/06 02:45:20;;;;;;;7.60;4.13;;;0.30;99.90;;;;;;5088065;28;20042;-45
2021/04/06 02:47:53;;;;;;;9.02;4.93;;;0.20;99.90;;;;;;5087579;28;20023;-46
2021/04/06 02:50:22;;;;;;;10.15;4.70;;;0.20;99.90;;;;;;5088796;28;20485;-46
2021/04/06 02:52:48;;;;;;;8.57;4.72;;;0.20;99.90;;;;;;5088687;28;20557;-53
2021/04/06 02:55:16;;;;;;;7.95;4.57;;;0.20;99.90;;;;;;5087003;28;20032;-47
2021/04/06 02:57:46;;;;;;;10.70;5.95;;;0.20;99.90;;;;;;5088944;28;20035;-47
2021/04/06 03:00:32;;;;;;;9.40;5.05;;;0.10;99.90;;;;;;5088576;28;20321;-47
2021/04/06 03:03:04;;;;;;;9.48;5.20;;;0.10;99.90;;;;;;5086993;28;20028;-46
2021/04/06 03:05:31;;;;;;;7.40;5.43;;;0.00;99.90;;;;;;5074970;28;20111;-48
2021/04/06 03:07:58;;;;;;;9.07;4.97;;;0.00;99.90;;;;;;5072887;28;20562;-45
2021/04/06 03:10:24;;;;;;;9.40;5.25;;;0.00;99.90;;;;;;5088214;28;20504;-45
2021/04/06 03:12:50;;;;;;;9.88;5.78;;;0.00;99.90;;;;;;5086904;28;20477;-46
2021/04/06 03:15:26;;;;;;;14.85;6.07;;;0.00;99.90;;;;;;5087579;28;20106;-48
2021/04/06 03:17:56;;;;;;;10.82;5.60;;;-0.10;99.90;;;;;;5088243;28;20492;-46
2021/04/06 03:20:26;;;;;;;10.02;6.00;;;-0.10;99.90;;;;;;5079358;28;20113;-46
2021/04/06 03:22:54;;;;;;;7.65;5.15;;;-0.20;99.90;;;;;;5087913;28;20030;-48
2021/04/06 03:25:21;;;;;;;20.80;6.85;;;-0.20;99.90;;;;;;5081971;28;20597;-45
2021/04/06 03:27:49;;;;;;;9.40;5.50;;;-0.20;99.90;;;;;;5083155;28;20500;-45
2021/04/06 03:30:31;;;;;;;13.05;6.60;;;-0.20;99.90;;;;;;5082019;28;20036;-45
2021/04/06 03:33:18;;;;;;;9.43;5.03;;;-0.20;99.90;;;;;;5080766;28;20093;-45
2021/04/06 03:35:47;;;;;;;10.57;5.43;;;-0.30;99.90;;;;;;5085206;28;20047;-46
2021/04/06 03:38:13;;;;;;;7.97;5.05;;;-0.30;99.90;;;;;;5086378;28;20313;-46
2021/04/06 03:40:40;;;;;;;9.38;4.93;;;-0.30;99.90;;;;;;5086844;28;20109;-46
2021/04/06 03:43:20;;;;;;;10.18;5.60;;;-0.30;99.90;;;;;;5086776;28;20024;-46
2021/04/06 03:45:56;;;;;;;11.40;6.00;;;-0.30;99.90;;;;;;5085051;28;20024;-46
2021/04/06 03:48:25;;;;;;;10.43;5.65;;;-0.30;99.90;;;;;;5084999;28;20473;-45
2021/04/06 03:50:52;;;;;;;10.73;4.97;;;-0.40;99.90;;;;;;5086050;28;20031;-47
2021/04/06 03:53:20;;;;;;;9.00;5.28;;;-0.30;99.90;;;;;;5084203;28;20023;-46
2021/04/06 03:56:08;;;;;;;11.02;5.07;;;-0.30;99.90;;;;;;5087414;28;20514;-46
2021/04/06 03:58:42;;;;;;;13.40;4.68;;;-0.30;99.90;;;;;;5068004;28;20705;-46
2021/04/06 04:01:08;;;;;;;10.50;4.82;;;-0.30;99.90;;;;;;5057291;28;20077;-45
2021/04/06 04:03:34;;;;;;;8.73;4.13;;;-0.20;99.90;;;;;;5066589;28;20031;-47
2021/04/06 04:06:00;;;;;;;7.28;4.13;;;-0.30;99.90;;;;;;5087824;28;20032;-46
2021/04/06 04:08:26;;;;;;;10.35;4.88;;;-0.30;99.90;;;;;;5088026;28;20068;-47
2021/04/06 04:10:52;;;;;;;11.27;3.97;;;-0.30;99.90;;;;;;5070396;28;20031;-46
2021/04/06 04:13:17;;;;;;;8.82;4.07;;;-0.30;99.90;;;;;;5086786;28;20024;-45
2021/04/06 04:15:43;;;;;;;9.43;4.57;;;-0.30;99.90;;;;;;5087436;28;20044;-45
2021/04/06 04:18:08;;;;;;;9.25;3.85;;;-0.30;99.90;;;;;;5088616;28;20032;-45
2021/04/06 04:20:34;;;;;;;7.20;3.88;;;-0.30;99.90;;;;;;5088767;28;20118;-46
2021/04/06 04:22:59;;;;;;;11.23;4.45;;;-0.30;99.90;;;;;;5087457;28;20042;-46
2021/04/06 04:25:25;;;;;;;7.40;3.88;;;-0.30;99.90;;;;;;5088264;28;20039;-46
2021/04/06 04:27:51;;;;;;;9.82;4.03;;;-0.30;99.90;;;;;;5085695;28;20063;-46
2021/04/06 04:30:35;;;;;;;8.40;3.60;;;-0.30;99.90;;;;;;5095174;28;20028;-47
2021/04/06 04:33:01;;;;;;;8.10;3.63;;;-0.30;99.90;;;;;;5087664;28;20016;-46
2021/04/06 04:35:27;;;;;;;7.20;4.00;;;-0.30;99.90;;;;;;5088505;28;20027;-46
2021/04/06 04:37:53;;;;;;;9.05;4.15;;;-0.20;99.90;;;;;;5078240;28;20036;-45
2021/04/06 04:40:18;;;;;;;12.07;3.90;;;-0.30;99.90;;;;;;5076874;28;20120;-46
2021/04/06 04:42:44;;;;;;;8.15;4.63;;;-0.30;99.90;;;;;;5089979;28;20030;-46
2021/04/06 04:45:10;;;;;;;9.50;3.92;;;-0.20;99.90;;;;;;5093493;28;20429;-46
2021/04/06 04:47:36;;;;;;;7.07;4.93;;;-0.20;99.90;;;;;;5067761;28;20435;-48
2021/04/06 04:50:02;;;;;;;10.02;4.55;;;-0.20;99.90;;;;;;5094324;28;20114;-45
2021/04/06 04:52:28;;;;;;;10.27;5.07;;;-0.20;99.90;;;;;;5108390;28;20027;-46
2021/04/06 04:54:54;;;;;;;9.15;4.70;;;-0.20;99.90;;;;;;5089081;28;20412;-45
2021/04/06 04:57:20;;;;;;;12.30;5.63;;;-0.10;99.90;;;;;;5090889;28;20024;-46
2021/04/06 04:59:46;;;;;;;13.40;4.93;;;-0.10;99.90;;;;;;5090642;28;20044;-45
2021/04/06 05:02:11;;;;;;;13.77;6.13;;;0.00;99.90;;;;;;5090030;28;20067;-45
2021/04/06 05:04:37;;;;;;;10.07;5.43;;;0.00;99.90;;;;;;5104692;28;20423;-47
2021/04/06 05:07:02;;;;;;;15.25;5.75;;;0.10;99.90;;;;;;5097689;28;20457;-47
2021/04/06 05:09:28;;;;;;;8.70;4.80;;;0.20;99.90;;;;;;5087730;28;20024;-46
2021/04/06 05:11:54;;;;;;;11.13;5.70;;;0.20;99.90;;;;;;5087972;28;20228;-48
2021/04/06 05:14:20;;;;;;;11.82;5.90;;;0.30;99.90;;;;;;5066775;28;20041;-47
2021/04/06 05:16:45;;;;;;;14.95;6.25;;;0.30;99.90;;;;;;5080579;28;20029;-47
2021/04/06 05:19:11;;;;;;;12.55;6.00;;;0.30;99.90;;;;;;5080483;28;20035;-47
2021/04/06 05:21:36;;;;;;;14.13;5.95;;;0.30;99.90;;;;;;5087540;28;20031;-47
2021/04/06 05:24:02;;;;;;;10.63;6.00;;;0.30;99.90;;;;;;5085876;28;20021;-47
2021/04/06 05:26:27;;;;;;;12.40;5.90;;;0.40;99.90;;;;;;5068899;28;20076;-49
2021/04/06 05:28:53;;;;;;;13.63;6.47;;;0.50;99.90;;;;;;5087415;28;20051;-46
2021/04/06 05:31:18;;;;;;;12.60;6.97;;;0.50;99.90;;;;;;5089616;28;20028;-47
2021/04/06 05:33:44;;;;;;;13.93;6.80;;;0.60;99.90;;;;;;5089947;28;20043;-46
2021/04/06 05:36:10;;;;;;;17.30;6.57;;;0.60;99.90;;;;;;5090808;28;20579;-48
2021/04/06 05:38:35;;;;;;;11.50;6.03;;;0.70;99.90;;;;;;5071054;28;20224;-47
2021/04/06 05:41:01;;;;;;;11.80;6.25;;;0.80;99.90;;;;;;5087388;28;20100;-48
2021/04/06 05:43:27;;;;;;;17.35;6.15;;;0.80;99.90;;;;;;5087789;28;20089;-47
2021/04/06 05:45:53;;;;;;;11.93;7.10;;;0.90;99.90;;;;;;5082969;28;20024;-47
2021/04/06 05:48:19;;;;;;;13.77;6.35;;;1.00;99.90;;;;;;5081990;28;20028;-47
2021/04/06 05:50:51;;;;;;;13.70;6.45;;;1.00;99.90;;;;;;5088953;28;20020;-49
2021/04/06 05:53:16;;;;;;;15.20;6.55;;;1.10;99.90;;;;;;5074148;28;20074;-46
2021/04/06 05:55:42;;;;;;;21.30;7.50;;;1.10;99.90;;;;;;5074861;28;20590;-47
2021/04/06 05:58:07;;;;;;;12.32;6.50;;;1.10;99.90;;;;;;5090592;28;20107;-50
2021/04/06 06:00:33;;;;;;;9.50;6.32;;;1.20;99.90;;;;;;5095018;28;20055;-48
2021/04/06 06:03:00;;;;;;;20.90;5.97;;;1.30;99.90;;;;;;5089708;28;21243;-48
2021/04/06 06:05:26;;;;;;;18.63;6.60;;;1.30;99.90;;;;;;5090299;28;20035;-50
2021/04/06 06:07:51;;;;;;;13.40;6.38;;;1.40;99.90;;;;;;5090797;28;20008;-49
2021/04/06 06:10:30;;;;;;;13.52;6.00;;;1.40;99.90;;;;;;5090224;28;20372;-48
2021/04/06 06:13:17;;;;;;;23.88;8.77;;;1.50;99.90;;;;;;5089764;28;20047;-47
2021/04/06 06:15:43;;;;;;;16.83;6.20;;;1.50;99.90;;;;;;5081687;28;20059;-47
2021/04/06 06:18:08;;;;;;;13.85;6.57;;;1.50;99.90;;;;;;5090034;28;20063;-47
2021/04/06 06:20:35;;;;;;;15.27;6.53;;;1.50;99.90;;;;;;5091102;28;20473;-47
2021/04/06 06:23:20;;;;;;;15.05;6.35;;;1.60;99.90;;;;;;5087537;28;20082;-50
2021/04/06 06:26:07;;;;;;;15.07;6.03;;;1.60;99.90;;;;;;5087698;28;20039;-47
2021/04/06 06:28:35;;;;;;;9.38;5.35;;;1.60;99.90;;;;;;5092947;28;20527;-47
2021/04/06 06:31:01;;;;;;;14.57;5.53;;;1.60;99.90;;;;;;5107339;28;20048;-47
2021/04/06 06:33:29;;;;;;;10.30;5.60;;;1.80;99.90;;;;;;5089919;28;20032;-46
2021/04/06 06:35:59;;;;;;;10.95;5.22;;;1.90;99.90;;;;;;5094405;28;20032;-48
2021/04/06 06:38:33;;;;;;;11.27;5.43;;;1.90;99.90;;;;;;5095825;28;20042;-48
2021/04/06 06:41:12;;;;;;;11.70;5.65;;;1.90;99.90;;;;;;5095009;28;20024;-49
2021/04/06 06:43:42;;;;;;;11.07;5.05;;;2.00;99.90;;;;;;5094529;28;20387;-47
2021/04/06 06:46:21;;;;;;;8.57;5.07;;;2.10;99.90;;;;;;5086408;28;20076;-47
2021/04/06 06:48:57;;;;;;;9.82;5.47;;;2.10;99.90;;;;;;5089136;28;20016;-48
2021/04/06 06:51:30;;;;;;;21.85;4.93;;;2.10;99.90;;;;;;5090406;28;20035;-49
2021/04/06 06:53:56;;;;;;;8.30;4.70;;;2.20;99.90;;;;;;5087385;28;20397;-47
2021/04/06 06:56:33;;;;;;;10.50;5.07;;;2.20;99.90;;;;;;5072078;28;20024;-49
2021/04/06 06:58:59;;;;;;;11.38;5.45;;;2.20;99.90;;;;;;5090476;28;20497;-47
2021/04/06 07:01:26;;;;;;;9.13;4.78;;;2.20;99.90;;;;;;5090126;28;20139;-47
2021/04/06 07:04:04;;;;;;;11.40;5.43;;;2.30;99.90;;;;;;5086159;28;20385;-50
2021/04/06 07:06:30;;;;;;;12.45;5.10;;;2.30;99.90;;;;;;5089683;28;20024;-47
2021/04/06 07:08:56;;;;;;;17.50;5.50;;;2.50;99.90;;;;;;5088272;28;20035;-47
2021/04/06 07:11:23;;;;;;;15.77;5.00;;;2.60;99.90;;;;;;5090012;28;20035;-48
2021/04/06 07:13:51;;;;;;;18.00;6.47;;;2.60;99.90;;;;;;5088960;28;20417;-48
2021/04/06 07:16:19;;;;;;;15.18;4.57;;;2.70;99.90;;;;;;5087805;28;20038;-46
2021/04/06 07:18:48;;;;;;;17.80;5.05;;;2.80;99.90;;;;;;5089994;28;20016;-47
2021/04/06 07:21:17;;;;;;;17.80;5.60;;;2.70;99.90;;;;;;5089582;28;20082;-47
2021/04/06 07:23:57;;;;;;;10.07;4.72;;;2.70;99.90;;;;;;5088058;28;20028;-47
2021/04/06 07:26:25;;;;;;;7.10;3.47;;;2.80;99.90;;;;;;5088356;28;20088;-47
2021/04/06 07:28:51;;;;;;;14.45;4.93;;;2.90;99.90;;;;;;5070021;28;20020;-48
2021/04/06 07:31:17;;;;;;;12.38;4.95;;;2.80;99.90;;;;;;5089087;28;20173;-47
2021/04/06 07:33:48;;;;;;;13.20;4.68;;;2.90;99.90;;;;;;5087498;28;20307;-47
2021/04/06 07:36:16;;;;;;;8.52;4.85;;;3.00;99.90;;;;;;5089508;28;20078;-50
2021/04/06 07:38:57;;;;;;;17.55;5.20;;;3.20;99.90;;;;;;5089470;28;20074;-47
2021/04/06 07:41:25;;;;;;;11.68;4.80;;;3.30;99.90;;;;;;5080900;28;20199;-50
2021/04/06 07:43:53;;;;;;;17.60;5.28;;;3.40;99.90;;;;;;5088773;28;20035;-50
2021/04/06 07:46:34;;;;;;;17.20;5.18;;;3.40;99.90;;;;;;5070675;28;20034;-47
2021/04/06 07:49:29;;;;;;;17.08;4.55;;;3.70;99.90;;;;;;5085864;28;20024;-49
2021/04/06 07:52:00;;;;;;;11.25;3.33;;;3.70;99.90;;;;;;5056154;28;20141;-47
2021/04/06 07:54:43;;;;;;;11.70;3.25;;;3.90;99.90;;;;;;5085239;28;20118;-47
2021/04/06 07:57:10;;;;;;;13.40;3.15;;;4.30;99.90;;;;;;5088396;28;20023;-47
2021/04/06 07:59:35;;;;;;;9.13;3.35;;;4.60;99.90;;;;;;5087917;28;20040;-50
2021/04/06 08:02:03;;;;;;;7.35;3.63;;;4.80;99.90;;;;;;5085023;28;20509;-49
2021/04/06 08:04:38;;;;;;;10.07;3.65;;;4.60;99.90;;;;;;5086527;28;20039;-48
2021/04/06 08:07:24;;;;;;;13.07;3.25;;;4.30;99.90;;;;;;5086270;28;20324;-49
2021/04/06 08:09:50;;;;;;;11.40;3.97;;;4.50;99.90;;;;;;5078646;28;20126;-49
2021/04/06 08:12:34;;;;;;;15.82;3.38;;;4.30;99.90;;;;;;5088164;28;20085;-47
2021/04/06 08:15:02;;;;;;;12.77;3.47;;;4.40;99.90;;;;;;5077245;28;20434;-47
2021/04/06 08:17:27;;;;;;;10.75;3.60;;;4.40;99.90;;;;;;5082360;28;20055;-49
2021/04/06 08:20:05;;;;;;;13.45;3.45;;;4.30;99.90;;;;;;5082399;28;20505;-48
2021/04/06 08:22:54;;;;;;;11.15;3.30;;;4.30;99.90;;;;;;5083342;28;20050;-46
2021/04/06 08:25:20;;;;;;;21.77;4.28;;;4.20;99.90;;;;;;5068578;28;20036;-49
2021/04/06 08:27:48;;;;;;;11.35;2.60;;;4.20;99.90;;;;;;5085509;28;20523;-48
2021/04/06 08:30:19;;;;;;;12.60;3.20;;;4.20;99.90;;;;;;5085367;28;20024;-52
2021/04/06 08:33:00;;;;;;;12.55;2.75;;;4.10;99.90;;;;;;5082421;28;20051;-47
2021/04/06 08:38:25;;;;;;;11.13;2.80;;;4.50;99.90;;;;;;5082953;28;20024;-49
2021/04/06 08:40:50;;;;;;;12.18;2.83;;;4.80;99.90;;;;;;5081527;28;20020;-49
2021/04/06 08:43:18;;;;;;;13.75;2.95;;;5.50;99.90;;;;;;5068924;28;20342;-49
2021/04/06 08:46:05;;;;;;;12.38;3.53;;;6.40;99.90;;;;;;5068953;28;20035;-51
2021/04/06 08:51:25;;;;;;;15.60;4.28;;;7.60;98.70;;;;;;5086323;28;20118;-48
2021/04/06 08:53:52;;;;;;;12.07;3.25;;;7.50;98.30;;;;;;5082336;28;20028;-50
2021/04/06 08:56:29;;;;;;;10.70;2.72;;;7.10;98.50;;;;;;5085164;28;20022;-48
2021/04/06 08:59:17;;;;;;;9.00;2.80;;;6.80;99.60;;;;;;5085139;28;20386;-50
2021/04/06 09:02:08;;;;;;;13.82;3.33;;;6.40;99.90;;;;;;5083621;28;20478;-49
2021/04/06 09:04:48;;;;;;;10.82;2.80;;;6.60;98.00;;;;;;5070871;28;20044;-46
2021/04/06 09:07:26;;;;;;;11.52;2.78;;;7.00;99.10;;;;;;5071181;28;20028;-47
2021/04/06 09:09:55;;;;;;;10.30;2.33;;;7.50;96.80;;;;;;5093443;28;20029;-49
2021/04/06 09:12:22;;;;;;;8.27;2.70;;;8.00;94.50;;;;;;5087793;28;20039;-50
2021/04/06 09:14:49;;;;;;;11.07;3.25;;;8.00;94.70;;;;;;5086196;28;20046;-49
2021/04/06 09:17:15;;;;;;;7.68;2.50;;;8.30;90.00;;;;;;5087842;28;20485;-51
2021/04/06 09:19:41;;;;;;;12.98;3.50;;;8.50;91.70;;;;;;5087900;28;20457;-49
2021/04/06 09:22:11;;;;;;;11.10;3.05;;;8.50;90.80;;;;;;5087896;28;20173;-48
2021/04/06 09:24:38;;;;;;;11.65;2.70;;;9.20;90.10;;;;;;5085237;28;20043;-50
2021/04/06 09:27:04;;;;;;;10.10;3.17;;;9.30;82.80;;;;;;5087927;28;20486;-50
2021/04/06 09:29:32;;;;;;;13.13;3.28;;;8.90;84.60;;;;;;5084608;28;20029;-49
2021/04/06 09:32:00;;;;;;;12.10;2.85;;;8.30;86.70;;;;;;5087376;28;20027;-48
2021/04/06 09:34:29;;;;;;;11.65;2.88;;;7.70;90.10;;;;;;5087773;28;20024;-48
2021/04/06 09:37:05;;;;;;;6.43;2.40;;;6.70;92.00;;;;;;5091591;28;20024;-48
2021/04/06 09:39:32;;;;;;;16.92;3.25;;;6.30;92.20;;;;;;5086143;28;20036;-47
2021/04/06 09:42:00;;;;;;;13.00;2.80;;;5.80;95.10;;;;;;5090091;28;20504;-48
2021/04/06 09:44:31;;;;;;;13.63;3.03;;;5.70;96.80;;;;;;5091155;28;20032;-50
2021/04/06 09:46:59;;;;;;;13.13;3.42;;;6.40;96.00;;;;;;5070248;28;20502;-50
2021/04/06 09:49:34;;;;;;;12.60;3.28;;;7.70;94.00;;;;;;5085203;28;20039;-49
2021/04/06 09:52:02;;;;;;;7.88;2.70;;;8.30;87.80;;;;;;5075851;28;20393;-48
2021/04/06 09:54:31;;;;;;;10.23;3.15;;;8.90;81.30;;;;;;5080310;28;20060;-48
2021/04/06 09:56:58;;;;;;;11.82;3.35;;;8.00;84.80;;;;;;5085602;28;20501;-47
2021/04/06 09:59:24;;;;;;;10.15;3.17;;;7.80;89.90;;;;;;5085913;28;20190;-47
2021/04/06 10:01:54;;;;;;;10.68;2.60;;;7.50;88.60;;;;;;5077916;28;20029;-47
2021/04/06 10:04:41;;;;;;;11.37;3.57;;;7.10;90.20;;;;;;5084081;28;20064;-48
2021/04/06 10:07:11;;;;;;;12.35;2.50;;;6.80;91.70;;;;;;5070994;28;20266;-49
2021/04/06 10:09:45;;;;;;;7.78;2.38;;;6.60;88.90;;;;;;5079597;28;20078;-50
2021/04/06 10:12:12;;;;;;;7.95;2.25;;;7.30;83.10;;;;;;5086332;28;20020;-48
2021/04/06 10:14:39;;;;;;;7.65;2.60;;;7.60;82.70;;;;;;5070745;28;20451;-49
2021/04/06 10:17:07;;;;;;;13.20;3.38;;;7.20;83.80;;;;;;5090697;28;20032;-50
2021/04/06 10:19:35;;;;;;;11.00;2.72;;;7.30;82.40;;;;;;5082024;28;20036;-49
2021/04/06 10:22:08;;;;;;;9.75;2.92;;;7.20;82.50;;;;;;5090729;28;20032;-48
2021/04/06 10:24:41;;;;;;;10.25;2.78;;;6.60;85.90;;;;;;5082954;28;20037;-48
2021/04/06 10:27:19;;;;;;;9.38;2.72;;;6.40;86.10;;;;;;5082979;28;20031;-47
2021/04/06 10:29:52;;;;;;;9.60;3.53;;;6.10;89.70;;;;;;5086738;28;20021;-47
2021/04/06 10:32:28;;;;;;;12.05;3.53;;;6.10;91.10;;;;;;5093272;28;20039;-48
2021/04/06 10:34:56;;;;;;;14.10;2.70;;;6.70;91.00;;;;;;5089580;28;20489;-47
2021/04/06 10:37:22;;;;;;;14.35;3.17;;;7.80;89.00;;;;;;5090505;28;20028;-49
2021/04/06 10:39:49;;;;;;;10.23;3.05;;;10.20;80.20;;;;;;5090383;28;20028;-48
2021/04/06 10:42:15;;;;;;;6.30;2.38;;;11.80;65.70;;;;;;5088931;28;20109;-51
2021/04/06 10:44:43;;;;;;;6.68;2.20;;;13.40;61.90;;;;;;5088998;28;20112;-51
2021/04/06 10:47:21;;;;;;;8.18;2.17;;;14.50;56.20;;;;;;5087583;28;20427;-49
2021/04/06 10:49:54;;;;;;;7.95;2.63;;;14.20;52.50;;;;;;5089658;28;20028;-48
2021/04/06 10:52:27;;;;;;;12.75;6.63;;;12.20;55.20;;;;;;5090446;28;20028;-47
2021/04/06 10:54:52;;;;;;;5.00;1.92;;;10.70;60.00;;;;;;5087292;28;20024;-49
2021/04/06 10:57:27;;;;;;;9.07;2.60;;;9.60;64.30;;;;;;5088040;28;20115;-50
2021/04/06 10:59:52;;;;;;;9.98;2.85;;;8.30;75.10;;;;;;5090563;28;20031;-48
2021/04/06 11:02:22;;;;;;;6.63;3.28;;;8.60;80.70;;;;;;5090316;28;20032;-48
2021/04/06 11:04:48;;;;;;;8.40;3.30;;;9.80;81.20;;;;;;5082733;28;20477;-49
2021/04/06 11:07:13;;;;;;;7.18;2.38;;;11.40;75.00;;;;;;5087044;28;20063;-51
2021/04/06 11:09:49;;;;;;;10.60;3.53;;;12.30;67.60;;;;;;5088867;28;20038;-48
2021/04/06 11:12:15;;;;;;;8.43;2.80;;;12.50;55.50;;;;;;5085081;28;20023;-49
2021/04/06 11:14:45;;;;;;;7.15;2.40;;;12.40;57.90;;;;;;5088446;28;20036;-48
2021/04/06 11:17:12;;;;;;;6.57;2.25;;;12.90;58.70;;;;;;5083667;28;20073;-48
2021/04/06 11:19:38;;;;;;;8.15;2.72;;;12.30;55.20;;;;;;5087831;28;20062;-47
2021/04/06 11:22:08;;;;;;;11.30;2.95;;;11.80;52.90;;;;;;5092076;28;20032;-47
2021/04/06 11:24:34;;;;;;;7.22;1.90;;;11.00;53.60;;;;;;5089670;28;20028;-48
2021/04/06 11:27:03;;;;;;;5.47;2.00;;;12.00;50.90;;;;;;5088670;28;20107;-48
2021/04/06 11:29:35;;;;;;;7.05;2.30;;;13.60;50.00;;;;;;5089182;28;20162;-50
2021/04/06 11:32:05;;;;;;;7.18;2.22;;;14.90;47.10;;;;;;5085346;28;20401;-49
2021/04/06 11:34:32;;;;;;;7.10;2.15;;;15.20;44.10;;;;;;5070202;28;20036;-51
2021/04/06 11:36:58;;;;;;;6.35;2.58;;;16.00;45.00;;;;;;5070213;28;20024;-50
2021/04/06 11:39:27;;;;;;;5.00;2.25;;;15.60;45.60;;;;;;5083957;28;20036;-50
2021/04/06 11:41:52;;;;;;;4.25;2.28;;;15.60;43.20;;;;;;5080580;28;20065;-50
2021/04/06 11:44:18;;;;;;;8.77;2.38;;;16.00;43.20;;;;;;5084854;28;20044;-51
2021/04/06 11:46:47;;;;;;;8.88;2.47;;;15.90;41.20;;;;;;5082872;28;20020;-52
2021/04/06 11:49:15;;;;;;;10.68;3.05;;;16.10;43.40;;;;;;5058344;28;20086;-52
2021/04/06 11:51:42;;;;;;;6.40;2.22;;;15.50;41.60;;;;;;5088835;28;20032;-52
2021/04/06 11:54:09;;;;;;;6.63;2.47;;;16.00;42.40;;;;;;5087516;28;20464;-51
2021/04/06 11:56:35;;;;;;;8.82;2.80;;;15.40;41.30;;;;;;5087919;28;20500;-52
2021/04/06 11:59:01;;;;;;;11.05;2.38;;;15.60;41.60;;;;;;5088733;28;20094;-48
2021/04/06 12:01:28;;;;;;;7.20;2.22;;;15.60;42.30;;;;;;5085107;28;20110;-49
2021/04/06 12:03:54;;;;;;;6.25;2.20;;;15.00;41.70;;;;;;5087278;28;20032;-51
2021/04/06 12:06:19;;;;;;;8.25;2.17;;;14.30;44.20;;;;;;5087369;28;20598;-48
2021/04/06 12:08:45;;;;;;;5.50;1.90;;;13.90;48.00;;;;;;5070528;28;20024;-51
2021/04/06 12:11:11;;;;;;;6.93;2.42;;;14.20;43.60;;;;;;5079258;28;20381;-48
2021/04/06 12:13:37;;;;;;;9.88;2.25;;;14.80;44.50;;;;;;5087626;28;20545;-48
2021/04/06 12:16:06;;;;;;;7.13;2.72;;;15.10;42.70;;;;;;5079203;28;20043;-49
2021/04/06 12:18:32;;;;;;;7.28;2.38;;;15.10;41.60;;;;;;5073420;28;20493;-48
2021/04/06 12:20:57;;;;;;;7.50;2.33;;;14.40;43.50;;;;;;5081739;28;20047;-50
2021/04/06 12:23:23;;;;;;;5.72;2.38;;;12.80;45.80;;;;;;5086895;28;20067;-47
2021/04/06 12:25:49;;;;;;;10.77;2.97;;;10.80;49.90;;;;;;5086687;28;20036;-47
2021/04/06 12:28:15;;;;;;;5.00;2.30;;;10.30;51.50;;;;;;5087896;28;20053;-47
2021/04/06 12:30:41;;;;;;;4.28;2.13;;;9.90;54.50;;;;;;5086982;28;20036;-48
2021/04/06 12:33:06;;;;;;;7.38;2.60;;;9.30;56.10;;;;;;5068983;28;20063;-48
2021/04/06 12:35:32;;;;;;;6.05;2.63;;;8.50;59.20;;;;;;5077879;28;20089;-48
2021/04/06 12:37:58;;;;;;;2.15;1.33;;;7.70;69.20;;;;;;5086416;28;20035;-48
2021/04/06 12:40:24;;;;;;;2.55;1.20;;;7.50;74.10;;;;;;5087647;28;20449;-47
2021/04/06 12:42:50;;;;;;;3.70;1.50;;;6.90;77.20;;;;;;5083889;28;20028;-47
2021/04/06 12:45:18;;;;;;;2.45;1.50;;;5.90;98.90;;;;;;5079803;28;20032;-49
2021/04/06 12:47:44;;;;;;;3.50;1.40;;;5.70;99.90;;;;;;5087048;28;20037;-49
2021/04/06 12:50:10;;;;;;;2.80;1.38;;;5.30;99.90;;;;;;5084956;28;20027;-47
2021/04/06 12:52:36;;;;;;;4.30;1.50;;;5.10;99.90;;;;;;5069305;28;20020;-47
2021/04/06 12:55:02;;;;;;;3.60;2.05;;;5.10;99.90;;;;;;5085896;28;20081;-48
2021/04/06 12:57:28;;;;;;;8.30;1.75;;;5.20;99.90;;;;;;5087797;28;20042;-49
2021/04/06 12:59:57;;;;;;;4.43;1.52;;;5.90;99.90;;;;;;5087905;28;20036;-48
2021/04/06 13:02:23;;;;;;;3.72;1.55;;;6.70;99.90;;;;;;5087253;28;20439;-47
2021/04/06 13:04:49;;;;;;;6.25;1.70;;;7.30;99.90;;;;;;5085194;28;20358;-48
2021/04/06 13:07:16;;;;;;;5.18;2.10;;;7.60;99.80;;;;;;5084960;28;20036;-47